createdAt,value
2023-01-09T00:01:35.167Z,16.85
2023-01-09T00:04:03.685Z,15.40
2023-01-09T00:06:31.717Z,16.70
2023-01-09T00:08:59.921Z,15.30
2023-01-09T00:11:28.124Z,15.20
2023-01-09T00:13:56.259Z,17.75
2023-01-09T00:16:24.218Z,18.25
2023-01-09T00:18:54.290Z,16.90
2023-01-09T00:21:22.375Z,15.05
2023-01-09T00:23:50.322Z,16.20
2023-01-09T00:26:20.389Z,15.65
2023-01-09T00:28:51.046Z,15.80
2023-01-09T00:31:19.895Z,16.25
2023-01-09T00:33:56.358Z,15.10
2023-01-09T00:36:28.202Z,15.85
2023-01-09T00:38:59.413Z,18.35
2023-01-09T00:41:46.774Z,17.42
2023-01-09T00:44:28.815Z,14.80
2023-01-09T00:47:02.616Z,16.20
2023-01-09T00:49:33.758Z,17.85
2023-01-09T00:52:02.410Z,17.77
2023-01-09T00:54:31.684Z,17.27
2023-01-09T00:57:00.450Z,17.10
2023-01-09T00:59:29.194Z,20.55
2023-01-09T01:01:57.350Z,21.02
2023-01-09T01:04:44.305Z,20.63
2023-01-09T01:07:30.575Z,19.70
2023-01-09T01:09:58.487Z,20.13
2023-01-09T01:12:26.414Z,19.52
2023-01-09T01:14:54.691Z,20.98
2023-01-09T01:17:22.863Z,21.08
2023-01-09T01:19:50.995Z,19.35
2023-01-09T01:22:18.908Z,22.90
2023-01-09T01:24:46.826Z,21.52
2023-01-09T01:27:15.747Z,22.75
2023-01-09T01:29:43.694Z,22.13
2023-01-09T01:32:12.785Z,24.92
2023-01-09T01:34:40.654Z,20.15
2023-01-09T01:37:08.704Z,22.83
2023-01-09T01:39:36.605Z,21.30
2023-01-09T01:42:06.316Z,22.17
2023-01-09T01:44:55.974Z,22.67
2023-01-09T01:47:29.127Z,21.48
2023-01-09T01:50:01.577Z,22.13
2023-01-09T01:52:33.495Z,23.38
2023-01-09T01:55:01.974Z,25.23
2023-01-09T01:57:30.868Z,23.65
2023-01-09T02:00:01.139Z,23.20
2023-01-09T02:02:32.147Z,24.75
2023-01-09T02:05:02.652Z,25.02
2023-01-09T02:07:31.250Z,24.67
2023-01-09T02:09:59.617Z,22.45
2023-01-09T02:12:29.060Z,25.23
2023-01-09T02:15:13.465Z,25.85
2023-01-09T02:18:02.188Z,24.35
2023-01-09T02:20:36.311Z,25.58
2023-01-09T02:23:42.104Z,24.27
2023-01-09T02:26:42.067Z,24.85
2023-01-09T02:29:41.100Z,21.75
2023-01-09T02:32:46.543Z,21.15
2023-01-09T02:35:32.938Z,22.15
2023-01-09T02:38:00.851Z,22.08
2023-01-09T02:40:50.314Z,23.08
2023-01-09T02:43:18.783Z,20.02
2023-01-09T02:45:46.773Z,21.50
2023-01-09T02:48:15.070Z,20.25
2023-01-09T02:51:36.654Z,21.02
2023-01-09T02:54:04.476Z,21.10
2023-01-09T02:56:47.559Z,18.25
2023-01-09T02:59:40.692Z,18.15
2023-01-09T03:02:13.913Z,18.92
2023-01-09T03:05:10.037Z,21.35
2023-01-09T03:08:02.577Z,20.80
2023-01-09T03:10:42.126Z,20.90
2023-01-09T03:13:23.300Z,20.45
2023-01-09T03:15:54.382Z,21.75
2023-01-09T03:18:26.825Z,21.50
2023-01-09T03:20:56.124Z,21.08
2023-01-09T03:23:24.231Z,22.00
2023-01-09T03:25:52.111Z,18.73
2023-01-09T03:28:29.900Z,19.65
2023-01-09T03:30:57.817Z,21.63
2023-01-09T03:33:25.766Z,20.08
2023-01-09T03:35:53.650Z,17.60
2023-01-09T03:38:21.602Z,20.83
2023-01-09T03:40:49.539Z,19.85
2023-01-09T03:43:17.407Z,19.55
2023-01-09T03:45:45.419Z,18.65
2023-01-09T03:48:13.352Z,18.88
2023-01-09T03:50:43.639Z,20.42
2023-01-09T03:53:11.621Z,20.60
2023-01-09T03:55:39.877Z,19.27
2023-01-09T03:58:07.856Z,19.65
2023-01-09T04:00:35.798Z,19.75
2023-01-09T04:03:03.760Z,19.85
2023-01-09T04:05:31.642Z,21.65
2023-01-09T04:07:59.533Z,19.48
2023-01-09T04:10:27.525Z,21.15
2023-01-09T04:12:55.447Z,21.02
2023-01-09T04:15:23.990Z,21.95
2023-01-09T04:17:51.994Z,21.60
2023-01-09T04:20:19.959Z,21.85
2023-01-09T04:22:48.490Z,24.65
2023-01-09T04:25:16.495Z,22.05
2023-01-09T04:27:44.413Z,20.75
2023-01-09T04:30:12.954Z,23.65
2023-01-09T04:32:40.877Z,22.67
2023-01-09T04:35:09.351Z,20.63
2023-01-09T04:37:37.907Z,22.55
2023-01-09T04:40:09.969Z,21.13
2023-01-09T04:42:41.325Z,22.80
2023-01-09T04:47:41.827Z,23.20
2023-01-09T04:50:11.376Z,21.10
2023-01-09T04:52:39.524Z,22.48
2023-01-09T04:55:09.277Z,22.63
2023-01-09T04:57:38.001Z,21.85
2023-01-09T05:00:10.775Z,23.45
2023-01-09T05:02:39.426Z,22.08
2023-01-09T05:05:11.423Z,22.10
2023-01-09T05:07:39.784Z,23.70
2023-01-09T05:10:08.999Z,25.33
2023-01-09T05:12:37.481Z,21.00
2023-01-09T05:15:06.510Z,21.02
2023-01-09T05:17:34.606Z,21.23
2023-01-09T05:20:02.605Z,23.98
2023-01-09T05:22:30.499Z,20.77
2023-01-09T05:25:00.338Z,22.55
2023-01-09T05:27:28.624Z,22.27
2023-01-09T05:29:56.567Z,21.30
2023-01-09T05:32:24.479Z,20.17
2023-01-09T05:34:52.414Z,21.70
2023-01-09T05:37:20.377Z,22.25
2023-01-09T05:39:48.251Z,22.05
2023-01-09T05:42:16.179Z,21.42
2023-01-09T05:44:44.137Z,20.30
2023-01-09T05:47:12.174Z,21.42
2023-01-09T05:49:40.188Z,21.40
2023-01-09T05:52:09.749Z,22.52
2023-01-09T05:54:37.953Z,21.50
2023-01-09T05:57:05.912Z,24.65
2023-01-09T05:59:33.844Z,15.43
2023-01-09T06:02:01.868Z,12.25
2023-01-09T06:04:30.995Z,4.45
2023-01-09T06:06:58.926Z,1.30
2023-01-09T06:09:26.841Z,0.65
2023-01-09T06:11:58.953Z,0.80
2023-01-09T06:14:26.882Z,1.73
2023-01-09T06:16:54.743Z,1.23
2023-01-09T06:19:22.897Z,3.38
2023-01-09T06:21:50.882Z,0.35
2023-01-09T06:24:22.094Z,0.68
2023-01-09T06:26:50.989Z,0.40
2023-01-09T06:29:21.367Z,0.52
2023-01-09T06:31:49.439Z,0.93
2023-01-09T06:34:20.484Z,0.30
2023-01-09T06:36:48.413Z,0.20
2023-01-09T06:39:16.432Z,0.47
2023-01-09T06:41:48.510Z,0.47
2023-01-09T06:44:16.717Z,0.52
2023-01-09T06:46:44.631Z,0.20
2023-01-09T06:49:12.631Z,3.00
2023-01-09T06:51:40.567Z,1.13
2023-01-09T06:54:08.527Z,0.68
2023-01-09T06:56:36.441Z,0.60
2023-01-09T06:59:04.365Z,3.05
2023-01-09T07:01:32.342Z,2.42
2023-01-09T07:04:00.399Z,1.75
2023-01-09T07:06:32.030Z,0.73
2023-01-09T07:08:59.965Z,2.05
2023-01-09T07:11:27.840Z,0.88
2023-01-09T07:13:55.766Z,0.68
2023-01-09T07:16:23.696Z,2.40
2023-01-09T07:18:51.783Z,1.05
2023-01-09T07:21:19.727Z,1.05
2023-01-09T07:23:47.647Z,0.65
2023-01-09T07:26:15.579Z,3.03
2023-01-09T07:28:43.551Z,1.20
2023-01-09T07:31:11.588Z,0.52
2023-01-09T07:33:39.615Z,0.52
2023-01-09T07:36:07.876Z,0.98
2023-01-09T07:38:37.458Z,1.88
2023-01-09T07:41:05.677Z,4.97
2023-01-09T07:43:33.717Z,0.65
2023-01-09T07:46:01.716Z,1.67
2023-01-09T07:48:29.703Z,1.45
2023-01-09T07:50:57.702Z,2.15
2023-01-09T07:53:25.576Z,0.60
2023-01-09T07:55:53.638Z,1.88
2023-01-09T07:58:21.550Z,0.88
2023-01-09T08:00:49.447Z,1.55
2023-01-09T08:03:17.364Z,1.58
2023-01-09T08:05:45.397Z,2.28
2023-01-09T08:08:13.348Z,1.58
2023-01-09T08:10:41.298Z,4.45
2023-01-09T08:13:09.228Z,1.83
2023-01-09T08:15:37.301Z,2.95
2023-01-09T08:18:05.394Z,3.17
2023-01-09T08:20:33.444Z,1.52
2023-01-09T08:23:01.400Z,2.03
2023-01-09T08:25:31.003Z,1.60
2023-01-09T08:27:58.923Z,2.38
2023-01-09T08:30:26.846Z,3.03
2023-01-09T08:32:55.665Z,1.80
2023-01-09T08:35:26.345Z,4.30
2023-01-09T08:37:56.059Z,1.45
2023-01-09T08:40:26.247Z,4.25
2023-01-09T08:43:12.737Z,3.28
2023-01-09T08:45:59.104Z,4.05
2023-01-09T08:48:27.078Z,2.97
2023-01-09T08:50:55.409Z,5.80
2023-01-09T08:53:23.452Z,4.22
2023-01-09T08:55:51.383Z,4.30
2023-01-09T08:58:19.280Z,5.35
2023-01-09T09:00:47.189Z,7.20
2023-01-09T09:03:15.103Z,4.43
2023-01-09T09:05:43.632Z,4.80
2023-01-09T09:08:12.545Z,9.18
2023-01-09T09:10:40.675Z,4.30
2023-01-09T09:13:08.705Z,4.60
2023-01-09T09:15:43.467Z,5.97
2023-01-09T09:18:11.741Z,5.63
2023-01-09T09:20:40.305Z,6.18
2023-01-09T09:23:09.379Z,2.25
2023-01-09T09:25:41.468Z,3.92
2023-01-09T09:28:12.079Z,4.25
2023-01-09T09:30:40.402Z,4.60
2023-01-09T09:33:08.435Z,6.70
2023-01-09T09:35:36.419Z,4.88
2023-01-09T09:38:06.237Z,5.20
2023-01-09T09:40:51.788Z,2.92
2023-01-09T09:43:44.667Z,4.00
2023-01-09T09:46:54.604Z,3.33
2023-01-09T09:49:37.177Z,4.97
2023-01-09T09:52:20.499Z,6.05
2023-01-09T09:54:54.098Z,2.33
2023-01-09T09:57:33.224Z,4.20
2023-01-09T10:00:05.635Z,3.35
2023-01-09T10:02:59.662Z,4.43
2023-01-09T10:05:31.948Z,2.65
2023-01-09T10:08:15.819Z,6.80
2023-01-09T10:10:54.140Z,7.43
2023-01-09T10:13:46.504Z,5.60
2023-01-09T10:16:33.492Z,3.53
2023-01-09T10:19:29.559Z,4.68
2023-01-09T10:22:18.731Z,3.88
2023-01-09T10:25:18.928Z,3.88
2023-01-09T10:28:01.866Z,2.58
2023-01-09T10:30:45.977Z,4.10
2023-01-09T10:33:19.836Z,6.70
2023-01-09T10:36:23.415Z,6.45
2023-01-09T10:38:55.118Z,3.75
2023-01-09T10:41:32.846Z,5.05
2023-01-09T10:44:22.088Z,6.30
2023-01-09T10:47:00.401Z,4.70
2023-01-09T10:49:28.753Z,4.18
2023-01-09T10:52:21.579Z,6.40
2023-01-09T10:55:07.232Z,3.47
2023-01-09T10:57:47.283Z,3.75
2023-01-09T11:00:18.344Z,4.30
2023-01-09T11:02:46.491Z,2.88
2023-01-09T11:05:18.818Z,4.97
2023-01-09T11:08:12.641Z,4.18
2023-01-09T11:10:48.927Z,3.42
2023-01-09T11:13:22.911Z,2.78
2023-01-09T11:16:24.969Z,4.47
2023-01-09T11:18:56.566Z,7.22
2023-01-09T11:21:39.237Z,35.53
2023-01-09T11:24:22.517Z,16.52
2023-01-09T11:26:55.100Z,13.27
2023-01-09T11:29:30.459Z,18.77
2023-01-09T11:32:00.984Z,4.10
2023-01-09T11:34:32.349Z,5.67
2023-01-09T11:39:35.915Z,7.97
2023-01-09T11:42:06.423Z,5.57
2023-01-09T11:44:34.816Z,7.17
2023-01-09T11:47:02.826Z,8.32
2023-01-09T11:49:32.615Z,7.53
2023-01-09T11:52:17.781Z,8.32
2023-01-09T11:55:01.934Z,9.82
2023-01-09T11:57:29.931Z,8.68
2023-01-09T12:00:11.299Z,8.55
2023-01-09T12:02:47.385Z,3.75
2023-01-09T12:05:42.865Z,5.57
2023-01-09T12:08:34.243Z,5.15
2023-01-09T12:11:24.129Z,4.10
2023-01-09T12:14:28.279Z,5.18
2023-01-09T12:17:18.225Z,10.27
2023-01-09T12:19:48.843Z,5.78
2023-01-09T12:22:34.595Z,6.80
2023-01-09T12:25:11.704Z,3.50
2023-01-09T12:28:12.986Z,1.63
2023-01-09T12:31:09.998Z,2.33
2023-01-09T12:34:20.803Z,2.05
2023-01-09T12:37:03.291Z,2.10
2023-01-09T12:39:39.916Z,1.67
2023-01-09T12:42:23.105Z,6.18
2023-01-09T12:44:56.536Z,2.38
2023-01-09T12:47:52.248Z,2.38
2023-01-09T12:50:58.064Z,3.63
2023-01-09T12:53:31.959Z,2.67
2023-01-09T12:56:35.216Z,2.83
2023-01-09T12:59:22.301Z,5.20
2023-01-09T13:01:52.087Z,4.15
2023-01-09T13:04:31.896Z,2.00
2023-01-09T13:07:07.014Z,4.43
2023-01-09T13:09:40.593Z,3.25
2023-01-09T13:12:24.136Z,3.17
2023-01-09T13:14:57.581Z,3.97
2023-01-09T13:17:35.949Z,5.53
2023-01-09T13:20:05.770Z,6.75
2023-01-09T13:22:33.731Z,6.13
2023-01-09T13:25:21.809Z,3.55
2023-01-09T13:28:10.820Z,2.22
2023-01-09T13:30:58.778Z,4.07
2023-01-09T13:33:34.879Z,3.40
2023-01-09T13:36:06.832Z,4.57
2023-01-09T13:38:39.185Z,7.45
2023-01-09T13:41:37.528Z,4.30
2023-01-09T13:44:25.941Z,12.45
2023-01-09T13:46:58.058Z,39.40
2023-01-09T13:50:04.843Z,88.43
2023-01-09T13:52:48.126Z,11.88
2023-01-09T13:55:18.937Z,5.40
2023-01-09T13:58:05.632Z,3.30
2023-01-09T14:00:36.322Z,2.65
2023-01-09T14:03:39.833Z,3.13
2023-01-09T14:06:16.207Z,5.85
2023-01-09T14:08:45.893Z,4.32
2023-01-09T14:11:21.197Z,5.43
2023-01-09T14:13:56.593Z,5.88
2023-01-09T14:16:28.079Z,6.63
2023-01-09T14:19:32.968Z,9.68
2023-01-09T14:22:01.708Z,6.25
2023-01-09T14:24:48.126Z,4.22
2023-01-09T14:27:53.954Z,5.55
2023-01-09T14:30:28.041Z,4.45
2023-01-09T14:33:05.600Z,4.68
2023-01-09T14:35:55.949Z,8.15
2023-01-09T14:38:39.072Z,4.32
2023-01-09T14:41:20.256Z,13.70
2023-01-09T14:44:08.064Z,16.25
2023-01-09T14:46:40.085Z,9.98
2023-01-09T14:49:42.023Z,7.47
2023-01-09T14:52:26.229Z,15.40
2023-01-09T14:54:59.496Z,26.52
2023-01-09T14:57:39.264Z,22.90
2023-01-09T15:00:17.561Z,18.73
2023-01-09T15:02:47.162Z,21.58
2023-01-09T15:05:24.678Z,22.67
2023-01-09T15:07:57.758Z,16.95
2023-01-09T15:10:34.387Z,14.68
2023-01-09T15:13:04.360Z,6.78
2023-01-09T15:15:32.307Z,2.03
2023-01-09T15:18:08.950Z,2.08
2023-01-09T15:20:37.160Z,1.42
2023-01-09T15:23:06.496Z,1.25
2023-01-09T15:25:39.648Z,1.17
2023-01-09T15:28:26.264Z,0.75
2023-01-09T15:31:01.983Z,0.70
2023-01-09T15:33:30.248Z,2.47
2023-01-09T15:36:03.703Z,3.22
2023-01-09T15:38:34.127Z,2.97
2023-01-09T15:41:10.835Z,1.15
2023-01-09T15:43:44.204Z,4.80
2023-01-09T15:46:21.881Z,6.28
2023-01-09T15:48:55.171Z,4.68
2023-01-09T15:51:23.774Z,8.90
2023-01-09T15:53:52.112Z,2.63
2023-01-09T15:56:27.598Z,10.60
2023-01-09T15:59:02.546Z,10.27
2023-01-09T16:01:40.074Z,5.50
2023-01-09T16:04:17.463Z,6.55
2023-01-09T16:06:56.807Z,6.10
2023-01-09T16:09:30.768Z,3.20
2023-01-09T16:12:02.481Z,2.72
2023-01-09T16:14:39.534Z,2.22
2023-01-09T16:17:09.973Z,3.08
2023-01-09T16:19:54.796Z,2.78
2023-01-09T16:22:28.913Z,2.85
2023-01-09T16:25:00.222Z,3.55
2023-01-09T16:30:26.197Z,4.22
2023-01-09T16:32:54.226Z,3.65
2023-01-09T16:35:25.931Z,3.22
2023-01-09T16:37:53.878Z,2.92
2023-01-09T16:40:26.376Z,4.38
2023-01-09T16:43:10.285Z,4.60
2023-01-09T16:45:43.001Z,5.57
2023-01-09T16:48:17.132Z,7.32
2023-01-09T16:50:45.709Z,6.43
2023-01-09T16:53:18.042Z,6.80
2023-01-09T16:55:47.889Z,7.25
2023-01-09T16:58:19.688Z,13.15
2023-01-09T17:00:50.520Z,8.18
2023-01-09T17:03:20.288Z,6.05
2023-01-09T17:05:54.948Z,7.07
2023-01-09T17:08:26.095Z,9.13
2023-01-09T17:10:55.202Z,7.32
2023-01-09T17:13:24.052Z,7.40
2023-01-09T17:15:56.696Z,6.50
2023-01-09T17:18:26.677Z,6.25
2023-01-09T17:21:02.496Z,10.55
2023-01-09T17:23:31.575Z,7.65
2023-01-09T17:26:19.886Z,4.75
2023-01-09T17:28:52.005Z,9.93
2023-01-09T17:31:20.287Z,10.90
2023-01-09T17:33:48.193Z,7.82
2023-01-09T17:36:28.683Z,9.48
2023-01-09T17:38:56.665Z,8.90
2023-01-09T17:41:26.220Z,8.43
2023-01-09T17:43:54.299Z,9.95
2023-01-09T17:46:32.739Z,8.57
2023-01-09T17:49:01.685Z,8.25
2023-01-09T17:51:30.475Z,7.07
2023-01-09T17:53:58.803Z,6.03
2023-01-09T17:56:37.983Z,5.10
2023-01-09T17:59:06.986Z,5.47
2023-01-09T18:01:35.458Z,6.78
2023-01-09T18:04:03.383Z,8.05
2023-01-09T18:06:31.265Z,3.72
2023-01-09T18:08:59.441Z,5.53
2023-01-09T18:11:27.492Z,5.97
2023-01-09T18:13:55.377Z,6.68
2023-01-09T18:16:26.065Z,5.43
2023-01-09T18:18:55.490Z,6.97
2023-01-09T18:21:24.915Z,6.10
2023-01-09T18:23:53.320Z,9.05
2023-01-09T18:26:21.957Z,11.30
2023-01-09T18:28:52.075Z,13.98
2023-01-09T18:31:23.949Z,9.60
2023-01-09T18:33:53.639Z,11.65
2023-01-09T18:36:30.983Z,8.00
2023-01-09T18:39:01.023Z,12.25
2023-01-09T18:41:29.863Z,9.52
2023-01-09T18:43:59.932Z,10.18
2023-01-09T18:46:31.803Z,10.05
2023-01-09T18:49:02.296Z,8.88
2023-01-09T18:51:31.116Z,7.97
2023-01-09T18:53:59.824Z,7.05
2023-01-09T18:56:27.689Z,9.07
2023-01-09T18:58:59.074Z,4.88
2023-01-09T19:04:00.770Z,6.97
2023-01-09T19:06:29.994Z,11.30
2023-01-09T19:08:59.766Z,14.23
2023-01-09T19:11:27.694Z,9.35
2023-01-09T19:13:55.638Z,8.10
2023-01-09T19:16:23.620Z,8.02
2023-01-09T19:18:51.556Z,8.25
2023-01-09T19:21:21.726Z,5.55
2023-01-09T19:23:50.161Z,5.97
2023-01-09T19:26:21.741Z,5.38
2023-01-09T19:28:51.244Z,6.70
2023-01-09T19:31:19.581Z,6.57
2023-01-09T19:33:47.473Z,6.40
2023-01-09T19:36:15.505Z,4.18
2023-01-09T19:38:44.641Z,3.65
2023-01-09T19:41:15.875Z,6.13
2023-01-09T19:43:43.833Z,4.57
2023-01-09T19:46:15.241Z,3.75
2023-01-09T19:48:44.542Z,3.38
2023-01-09T19:51:13.712Z,4.68
2023-01-09T19:53:41.930Z,4.20
2023-01-09T19:56:17.668Z,3.05
2023-01-09T19:58:54.187Z,2.88
2023-01-09T20:01:34.308Z,4.43
2023-01-09T20:04:04.352Z,5.70
2023-01-09T20:06:32.757Z,4.90
2023-01-09T20:09:03.342Z,3.95
2023-01-09T20:11:33.310Z,2.35
2023-01-09T20:14:01.824Z,4.60
2023-01-09T20:16:31.957Z,2.75
2023-01-09T20:19:02.030Z,2.70
2023-01-09T20:21:31.182Z,4.18
2023-01-09T20:24:06.310Z,1.42
2023-01-09T20:26:36.683Z,3.35
2023-01-09T20:29:05.451Z,1.92
2023-01-09T20:31:34.084Z,2.75
2023-01-09T20:34:02.675Z,2.88
2023-01-09T20:36:31.769Z,2.97
2023-01-09T20:39:02.327Z,4.30
2023-01-09T20:41:31.847Z,1.93
2023-01-09T20:44:08.284Z,1.50
2023-01-09T20:46:39.825Z,3.15
2023-01-09T20:49:13.306Z,1.13
2023-01-09T20:51:53.006Z,2.47
2023-01-09T20:54:22.573Z,1.48
2023-01-09T20:56:51.475Z,4.68
2023-01-09T20:59:23.843Z,1.85
2023-01-09T21:01:52.257Z,1.50
2023-01-09T21:04:20.367Z,1.88
2023-01-09T21:06:50.256Z,2.10
2023-01-09T21:09:18.745Z,2.10
2023-01-09T21:11:46.782Z,1.90
2023-01-09T21:14:14.770Z,1.45
2023-01-09T21:16:45.440Z,3.33
2023-01-09T21:19:19.276Z,3.28
2023-01-09T21:21:47.131Z,1.00
2023-01-09T21:24:15.051Z,1.00
2023-01-09T21:26:42.955Z,1.88
2023-01-09T21:29:14.269Z,1.83
2023-01-09T21:31:42.374Z,1.73
2023-01-09T21:34:15.660Z,1.52
2023-01-09T21:36:45.944Z,3.45
2023-01-09T21:39:13.853Z,1.67
2023-01-09T21:42:00.427Z,1.60
2023-01-09T21:44:47.190Z,2.55
2023-01-09T21:47:15.132Z,1.60
2023-01-09T21:49:44.683Z,1.00
2023-01-09T21:52:15.616Z,1.50
2023-01-09T21:54:43.685Z,1.38
2023-01-09T21:57:11.888Z,2.00
2023-01-09T21:59:39.996Z,2.45
2023-01-09T22:02:08.055Z,3.63
2023-01-09T22:04:35.971Z,1.30
2023-01-09T22:07:03.950Z,1.98
2023-01-09T22:09:31.914Z,1.55
2023-01-09T22:11:59.806Z,1.90
2023-01-09T22:14:27.692Z,1.52
2023-01-09T22:16:55.650Z,1.48
2023-01-09T22:19:23.579Z,1.30
2023-01-09T22:21:51.637Z,2.58
2023-01-09T22:24:20.961Z,2.40
2023-01-09T22:26:49.378Z,1.67
2023-01-09T22:29:17.395Z,1.77
2023-01-09T22:31:45.556Z,1.08
2023-01-09T22:34:19.206Z,1.90
2023-01-09T22:36:48.352Z,1.67
2023-01-09T22:39:19.264Z,2.40
2023-01-09T22:41:52.467Z,2.25
2023-01-09T22:44:23.591Z,1.88
2023-01-09T22:46:56.051Z,2.67
2023-01-09T22:49:26.279Z,2.28
2023-01-09T22:51:54.383Z,2.58
2023-01-09T22:54:22.299Z,3.80
2023-01-09T22:56:51.849Z,2.00
2023-01-09T22:59:19.764Z,2.03
2023-01-09T23:01:47.713Z,3.30
2023-01-09T23:04:15.854Z,1.85
2023-01-09T23:06:44.528Z,1.38
2023-01-09T23:09:12.415Z,2.90
2023-01-09T23:11:58.835Z,1.80
2023-01-09T23:14:26.789Z,3.00
2023-01-09T23:16:55.666Z,2.15
2023-01-09T23:19:23.820Z,2.80
2023-01-09T23:21:51.893Z,2.45
2023-01-09T23:24:20.161Z,1.45
2023-01-09T23:26:48.715Z,3.38
2023-01-09T23:29:16.684Z,3.00
2023-01-09T23:31:44.885Z,3.17
2023-01-09T23:34:21.155Z,3.08
2023-01-09T23:36:49.409Z,2.50
2023-01-09T23:39:17.749Z,2.10
2023-01-09T23:42:04.818Z,3.22
2023-01-09T23:44:32.771Z,3.00
2023-01-09T23:47:00.707Z,3.50
2023-01-09T23:49:29.509Z,3.33
2023-01-09T23:51:57.652Z,3.78
2023-01-09T23:54:25.950Z,2.47
2023-01-09T23:56:57.328Z,4.05
